createdAt,value
2022-12-29T00:00:15.397Z,99
2022-12-29T00:02:15.511Z,74
2022-12-29T00:04:15.878Z,70
2022-12-29T00:06:15.671Z,67
2022-12-29T00:08:15.779Z,53
2022-12-29T00:10:15.847Z,63
2022-12-29T00:12:15.945Z,60
2022-12-29T00:14:17.583Z,57
2022-12-29T00:16:16.226Z,65
2022-12-29T00:18:16.235Z,76
2022-12-29T00:20:16.294Z,74
2022-12-29T00:22:16.388Z,61
2022-12-29T00:24:16.496Z,45
2022-12-29T00:28:46.701Z,42
2022-12-29T00:30:46.846Z,76
2022-12-29T00:34:47.052Z,58
2022-12-29T00:36:47.212Z,50
2022-12-29T00:38:47.288Z,45
2022-12-29T00:40:47.507Z,49
2022-12-29T00:42:47.522Z,49
2022-12-29T00:44:47.649Z,52
2022-12-29T00:46:47.890Z,51
2022-12-29T00:48:47.881Z,41
2022-12-29T00:50:47.987Z,37
2022-12-29T00:52:48.131Z,58
2022-12-29T00:54:48.226Z,53
2022-12-29T00:56:48.571Z,53
2022-12-29T00:58:48.420Z,49
2022-12-29T01:00:48.599Z,47
2022-12-29T01:02:48.830Z,59
2022-12-29T01:04:48.796Z,62
2022-12-29T01:06:48.917Z,55
2022-12-29T01:08:49.038Z,50
2022-12-29T01:10:49.212Z,49
2022-12-29T01:14:49.363Z,53
2022-12-29T01:16:49.469Z,57
2022-12-29T01:18:49.600Z,55
2022-12-29T01:20:49.691Z,69
2022-12-29T01:22:49.831Z,84
2022-12-29T01:24:49.937Z,69
2022-12-29T01:26:50.037Z,66
2022-12-29T01:28:50.128Z,106
2022-12-29T01:30:50.239Z,60
2022-12-29T01:32:50.360Z,58
2022-12-29T01:34:50.481Z,62
2022-12-29T01:36:50.592Z,58
2022-12-29T01:38:50.702Z,53
2022-12-29T01:40:50.794Z,52
2022-12-29T01:42:50.932Z,55
2022-12-29T01:44:51.035Z,55
2022-12-29T01:46:51.239Z,57
2022-12-29T01:48:51.275Z,59
2022-12-29T01:50:51.402Z,66
2022-12-29T01:52:51.508Z,68
2022-12-29T01:54:51.606Z,74
2022-12-29T01:56:51.725Z,58
2022-12-29T01:58:51.867Z,59
2022-12-29T02:00:51.981Z,67
2022-12-29T02:02:52.200Z,87
2022-12-29T02:04:52.169Z,80
2022-12-29T02:06:52.283Z,78
2022-12-29T02:08:52.395Z,59
2022-12-29T02:10:52.495Z,51
2022-12-29T02:12:52.633Z,51
2022-12-29T02:14:52.727Z,44
2022-12-29T02:16:52.867Z,38
2022-12-29T02:18:52.999Z,37
2022-12-29T02:20:53.056Z,36
2022-12-29T02:22:53.135Z,33
2022-12-29T02:24:53.237Z,30
2022-12-29T02:26:53.320Z,30
2022-12-29T02:28:53.432Z,31
2022-12-29T02:30:53.533Z,31
2022-12-29T02:32:53.635Z,32
2022-12-29T02:34:53.737Z,42
2022-12-29T02:36:53.860Z,50
2022-12-29T02:38:53.943Z,47
2022-12-29T02:40:54.022Z,44
2022-12-29T02:42:54.143Z,40
2022-12-29T02:44:54.239Z,32
2022-12-29T02:46:54.333Z,28
2022-12-29T02:48:54.427Z,33
2022-12-29T02:50:54.569Z,34
2022-12-29T02:52:54.634Z,34
2022-12-29T02:54:54.744Z,30
2022-12-29T02:56:54.844Z,35
2022-12-29T02:58:54.964Z,30
2022-12-29T03:00:55.129Z,31
2022-12-29T03:02:55.246Z,32
2022-12-29T03:04:55.274Z,29
2022-12-29T03:06:55.337Z,28
2022-12-29T03:08:55.467Z,30
2022-12-29T03:10:55.545Z,30
2022-12-29T03:12:55.700Z,33
2022-12-29T03:14:55.778Z,38
2022-12-29T03:16:56.022Z,38
2022-12-29T03:18:55.988Z,35
2022-12-29T03:20:56.109Z,36
2022-12-29T03:22:56.212Z,37
2022-12-29T03:24:56.351Z,34
2022-12-29T03:26:56.439Z,36
2022-12-29T03:28:56.521Z,34
2022-12-29T03:30:56.717Z,34
2022-12-29T03:32:56.742Z,36
2022-12-29T03:34:56.805Z,34
2022-12-29T03:36:56.952Z,35
2022-12-29T03:38:57.045Z,33
2022-12-29T03:40:57.352Z,29
2022-12-29T03:42:57.225Z,32
2022-12-29T03:44:57.342Z,33
2022-12-29T03:46:57.441Z,30
2022-12-29T03:48:57.575Z,37
2022-12-29T03:50:57.657Z,43
2022-12-29T03:52:57.760Z,33
2022-12-29T03:54:57.869Z,30
2022-12-29T03:56:57.999Z,31
2022-12-29T03:58:58.089Z,30
2022-12-29T04:00:58.222Z,30
2022-12-29T04:02:58.522Z,31
2022-12-29T04:04:58.376Z,33
2022-12-29T04:06:58.477Z,31
2022-12-29T04:08:58.606Z,31
2022-12-29T04:10:58.701Z,32
2022-12-29T04:12:58.775Z,31
2022-12-29T04:14:58.890Z,39
2022-12-29T04:16:59.004Z,53
2022-12-29T04:18:59.089Z,51
2022-12-29T04:20:59.201Z,54
2022-12-29T04:22:59.283Z,53
2022-12-29T04:24:59.455Z,55
2022-12-29T04:26:59.506Z,57
2022-12-29T04:28:59.590Z,55
2022-12-29T04:30:59.809Z,61
2022-12-29T04:32:59.810Z,66
2022-12-29T04:37:00.034Z,58
2022-12-29T04:39:00.147Z,60
2022-12-29T04:41:00.252Z,58
2022-12-29T04:43:00.362Z,53
2022-12-29T04:45:00.463Z,52
2022-12-29T04:47:00.577Z,49
2022-12-29T04:49:00.656Z,43
2022-12-29T04:51:00.756Z,36
2022-12-29T04:53:00.877Z,42
2022-12-29T04:55:00.966Z,38
2022-12-29T04:57:01.077Z,34
2022-12-29T04:59:01.173Z,37
2022-12-29T05:01:01.270Z,32
2022-12-29T05:03:01.701Z,31
2022-12-29T05:05:01.499Z,30
2022-12-29T05:07:01.567Z,32
2022-12-29T05:09:01.645Z,30
2022-12-29T05:11:01.789Z,31
2022-12-29T05:13:01.859Z,32
2022-12-29T05:15:01.959Z,29
2022-12-29T05:17:17.737Z,29
2022-12-29T05:19:02.104Z,32
2022-12-29T05:21:02.224Z,30
2022-12-29T05:23:02.342Z,28
2022-12-29T05:25:02.473Z,33
2022-12-29T05:27:02.499Z,32
2022-12-29T05:29:02.593Z,32
2022-12-29T05:31:02.897Z,30
2022-12-29T05:33:02.832Z,28
2022-12-29T05:35:02.920Z,27
2022-12-29T05:37:03.127Z,24
2022-12-29T05:39:03.136Z,22
2022-12-29T05:41:03.240Z,26
2022-12-29T05:43:03.358Z,31
2022-12-29T05:45:03.419Z,26
2022-12-29T05:47:03.618Z,27
2022-12-29T05:49:03.619Z,26
2022-12-29T05:51:03.733Z,46
2022-12-29T05:53:03.807Z,50
2022-12-29T05:55:03.930Z,59
2022-12-29T05:57:04.031Z,66
2022-12-29T05:59:04.134Z,70
2022-12-29T06:01:04.229Z,77
2022-12-29T06:03:04.447Z,73
2022-12-29T06:05:04.424Z,72
2022-12-29T06:07:04.522Z,72
2022-12-29T06:09:04.621Z,69
2022-12-29T06:11:04.724Z,67
2022-12-29T06:13:04.815Z,57
2022-12-29T06:15:04.940Z,55
2022-12-29T06:17:04.983Z,51
2022-12-29T06:19:05.115Z,49
2022-12-29T06:21:05.196Z,50
2022-12-29T06:23:05.291Z,121
2022-12-29T06:25:05.677Z,68
2022-12-29T06:27:05.496Z,69
2022-12-29T06:29:05.609Z,69
2022-12-29T06:31:05.706Z,45
2022-12-29T06:33:05.815Z,43
2022-12-29T06:35:05.892Z,45
2022-12-29T06:37:05.977Z,40
2022-12-29T06:39:06.067Z,34
2022-12-29T06:41:06.169Z,32
2022-12-29T06:43:06.246Z,32
2022-12-29T06:45:06.343Z,28
2022-12-29T06:47:06.566Z,31
2022-12-29T06:49:06.548Z,36
2022-12-29T06:51:06.674Z,32
2022-12-29T06:53:06.776Z,34
2022-12-29T06:55:06.844Z,37
2022-12-29T06:57:06.964Z,41
2022-12-29T06:59:07.024Z,42
2022-12-29T07:01:07.217Z,41
2022-12-29T07:03:07.387Z,47
2022-12-29T07:05:07.330Z,56
2022-12-29T07:07:07.429Z,53
2022-12-29T07:09:07.547Z,42
2022-12-29T07:11:07.652Z,41
2022-12-29T07:13:07.757Z,41
2022-12-29T07:15:07.858Z,42
2022-12-29T07:17:08.007Z,49
2022-12-29T07:19:08.055Z,58
2022-12-29T07:21:08.243Z,54
2022-12-29T07:23:08.251Z,43
2022-12-29T07:25:08.339Z,41
2022-12-29T07:27:08.434Z,49
2022-12-29T07:29:08.494Z,42
2022-12-29T07:31:08.582Z,37
2022-12-29T07:33:08.672Z,39
2022-12-29T07:35:08.804Z,40
2022-12-29T07:37:08.835Z,40
2022-12-29T07:39:08.934Z,43
2022-12-29T07:41:09.032Z,45
2022-12-29T07:43:09.136Z,44
2022-12-29T07:45:09.238Z,48
2022-12-29T07:47:09.377Z,52
2022-12-29T07:49:09.410Z,71
2022-12-29T07:51:09.497Z,75
2022-12-29T07:53:09.617Z,71
2022-12-29T07:55:09.740Z,76
2022-12-29T07:57:09.744Z,102
2022-12-29T07:59:09.847Z,136
2022-12-29T08:01:10.045Z,172
2022-12-29T08:03:10.041Z,155
2022-12-29T08:05:10.139Z,155
2022-12-29T08:07:10.197Z,144
2022-12-29T08:11:10.367Z,145
2022-12-29T08:13:10.485Z,130
2022-12-29T08:15:10.547Z,121
2022-12-29T08:17:10.645Z,111
2022-12-29T08:19:10.861Z,105
2022-12-29T08:21:10.840Z,107
2022-12-29T08:23:10.922Z,116
2022-12-29T08:25:11.054Z,131
2022-12-29T08:27:17.944Z,117
2022-12-29T08:29:11.180Z,120
2022-12-29T08:31:11.370Z,104
2022-12-29T08:33:11.377Z,103
2022-12-29T08:35:11.458Z,100
2022-12-29T08:37:11.606Z,110
2022-12-29T08:39:11.669Z,124
2022-12-29T08:41:11.758Z,127
2022-12-29T08:43:13.694Z,111
2022-12-29T08:45:11.947Z,119
2022-12-29T08:47:12.034Z,125
2022-12-29T08:49:12.124Z,113
2022-12-29T08:51:12.213Z,113
2022-12-29T08:53:12.323Z,105
2022-12-29T08:55:12.379Z,107
2022-12-29T08:57:12.493Z,106
2022-12-29T08:59:12.565Z,127
2022-12-29T09:01:12.733Z,134
2022-12-29T09:03:12.964Z,106
2022-12-29T09:05:12.884Z,263
2022-12-29T09:07:12.989Z,177
2022-12-29T09:09:12.989Z,118
2022-12-29T09:11:13.101Z,74
2022-12-29T09:13:13.185Z,81
2022-12-29T09:15:13.273Z,73
2022-12-29T09:17:13.422Z,66
2022-12-29T09:19:13.439Z,69
2022-12-29T09:21:13.558Z,69
2022-12-29T09:23:13.657Z,63
2022-12-29T09:25:13.720Z,63
2022-12-29T09:27:43.877Z,60
2022-12-29T09:29:43.981Z,56
2022-12-29T09:31:44.128Z,59
2022-12-29T09:33:44.270Z,58
2022-12-29T09:35:44.318Z,57
2022-12-29T09:37:44.480Z,57
2022-12-29T09:39:47.876Z,64
2022-12-29T09:41:44.672Z,61
2022-12-29T09:43:44.771Z,60
2022-12-29T09:45:44.905Z,57
2022-12-29T09:47:45.000Z,58
2022-12-29T09:49:45.116Z,55
2022-12-29T09:51:45.232Z,51
2022-12-29T09:53:45.354Z,54
2022-12-29T09:55:45.444Z,53
2022-12-29T09:57:45.609Z,48
2022-12-29T09:59:45.701Z,44
2022-12-29T10:01:45.945Z,48
2022-12-29T10:03:45.887Z,48
2022-12-29T10:05:46.025Z,47
2022-12-29T10:07:46.104Z,45
2022-12-29T10:09:46.198Z,46
2022-12-29T10:11:46.336Z,47
2022-12-29T10:13:46.408Z,44
2022-12-29T10:15:46.532Z,45
2022-12-29T10:17:46.617Z,45
2022-12-29T10:19:46.722Z,48
2022-12-29T10:21:46.832Z,46
2022-12-29T10:23:46.926Z,46
2022-12-29T10:25:47.015Z,45
2022-12-29T10:27:47.153Z,46
2022-12-29T10:29:47.258Z,49
2022-12-29T10:31:47.372Z,46
2022-12-29T10:33:47.465Z,50
2022-12-29T10:35:47.568Z,47
2022-12-29T10:37:47.688Z,44
2022-12-29T10:39:47.785Z,44
2022-12-29T10:41:47.867Z,45
2022-12-29T10:43:47.988Z,48
2022-12-29T10:45:48.081Z,48
2022-12-29T10:47:48.194Z,45
2022-12-29T10:49:48.290Z,43
2022-12-29T10:51:48.369Z,40
2022-12-29T10:53:48.477Z,37
2022-12-29T10:55:48.599Z,44
2022-12-29T10:57:48.713Z,70
2022-12-29T10:59:48.820Z,47
2022-12-29T11:01:49.236Z,59
2022-12-29T11:03:49.024Z,50
2022-12-29T11:05:49.128Z,69
2022-12-29T11:07:49.216Z,53
2022-12-29T11:09:49.359Z,44
2022-12-29T11:11:49.425Z,51
2022-12-29T11:13:49.563Z,43
2022-12-29T11:15:49.712Z,35
2022-12-29T11:17:49.800Z,36
2022-12-29T11:19:49.866Z,36
2022-12-29T11:21:49.994Z,38
2022-12-29T11:23:50.081Z,55
2022-12-29T11:25:50.195Z,43
2022-12-29T11:27:50.276Z,44
2022-12-29T11:29:50.335Z,42
2022-12-29T11:31:50.543Z,37
2022-12-29T11:33:50.584Z,23
2022-12-29T11:35:50.645Z,19
2022-12-29T11:37:50.772Z,19
2022-12-29T11:39:50.853Z,19
2022-12-29T11:41:50.977Z,22
2022-12-29T11:43:51.088Z,20
2022-12-29T11:45:51.239Z,17
2022-12-29T11:47:51.281Z,19
2022-12-29T11:49:51.388Z,17
2022-12-29T11:51:51.475Z,17
2022-12-29T11:53:51.545Z,16
2022-12-29T11:55:51.634Z,17
2022-12-29T11:57:51.751Z,18
2022-12-29T11:59:51.928Z,16
2022-12-29T12:01:52.000Z,27
2022-12-29T12:03:52.271Z,31
2022-12-29T12:05:52.111Z,33
2022-12-29T12:07:52.229Z,39
2022-12-29T12:09:52.366Z,38
2022-12-29T12:11:52.368Z,38
2022-12-29T12:13:52.468Z,32
2022-12-29T12:15:56.347Z,30
2022-12-29T12:17:52.660Z,29
2022-12-29T12:19:52.781Z,29
2022-12-29T12:21:52.806Z,31
2022-12-29T12:23:52.905Z,57
2022-12-29T12:25:52.978Z,97
2022-12-29T12:27:53.071Z,76
2022-12-29T12:29:53.157Z,51
2022-12-29T12:31:53.264Z,72
2022-12-29T12:33:53.378Z,64
2022-12-29T12:35:53.470Z,47
2022-12-29T12:37:53.563Z,40
2022-12-29T12:39:53.600Z,45
2022-12-29T12:41:53.689Z,40
2022-12-29T12:43:53.752Z,38
2022-12-29T12:45:53.946Z,30
2022-12-29T12:47:53.934Z,25
2022-12-29T12:49:53.984Z,27
2022-12-29T12:51:57.082Z,27
2022-12-29T12:53:54.143Z,26
2022-12-29T12:55:54.259Z,25
2022-12-29T12:57:54.339Z,25
2022-12-29T12:59:54.433Z,25
2022-12-29T13:01:54.827Z,27
2022-12-29T13:03:54.651Z,28
2022-12-29T13:05:54.676Z,26
2022-12-29T13:07:54.759Z,27
2022-12-29T13:09:54.867Z,31
2022-12-29T13:11:54.956Z,30
2022-12-29T13:13:55.136Z,31
2022-12-29T13:15:55.120Z,32
2022-12-29T13:17:55.177Z,30
2022-12-29T13:20:25.325Z,33
2022-12-29T13:22:25.493Z,33
2022-12-29T13:24:25.557Z,75
2022-12-29T13:26:25.677Z,71
2022-12-29T13:28:25.780Z,52
2022-12-29T13:30:26.017Z,54
2022-12-29T13:32:26.022Z,48
2022-12-29T13:34:26.117Z,42
2022-12-29T13:36:26.257Z,44
2022-12-29T13:38:26.365Z,40
2022-12-29T13:40:26.589Z,41
2022-12-29T13:42:26.582Z,39
2022-12-29T13:44:28.069Z,39
2022-12-29T13:46:26.859Z,42
2022-12-29T13:48:26.963Z,37
2022-12-29T13:50:27.042Z,41
2022-12-29T13:52:27.161Z,41
2022-12-29T13:54:27.255Z,45
2022-12-29T13:56:27.336Z,40
2022-12-29T13:58:27.460Z,42
2022-12-29T14:00:27.718Z,44
2022-12-29T14:02:27.878Z,47
2022-12-29T14:04:27.777Z,53
2022-12-29T14:06:27.885Z,54
2022-12-29T14:08:27.980Z,53
2022-12-29T14:10:28.093Z,51
2022-12-29T14:12:28.194Z,56
2022-12-29T14:14:28.307Z,61
2022-12-29T14:16:28.452Z,61
2022-12-29T14:18:28.531Z,66
2022-12-29T14:20:28.611Z,67
2022-12-29T14:22:32.983Z,66
2022-12-29T14:24:28.916Z,77
2022-12-29T14:26:28.940Z,78
2022-12-29T14:28:29.055Z,80
2022-12-29T14:30:29.139Z,85
2022-12-29T14:32:29.238Z,81
2022-12-29T14:34:29.325Z,82
2022-12-29T14:36:29.441Z,81
2022-12-29T14:38:29.555Z,99
2022-12-29T14:40:29.634Z,122
2022-12-29T14:42:29.762Z,113
2022-12-29T14:44:29.918Z,109
2022-12-29T14:46:29.995Z,114
2022-12-29T14:48:30.060Z,112
2022-12-29T14:50:30.138Z,117
2022-12-29T14:52:30.231Z,143
2022-12-29T14:54:30.346Z,128
2022-12-29T14:56:30.410Z,125
2022-12-29T14:58:30.485Z,117
2022-12-29T15:00:30.692Z,116
2022-12-29T15:02:30.836Z,121
2022-12-29T15:04:30.835Z,119
2022-12-29T15:08:30.976Z,117
2022-12-29T15:10:31.081Z,121
2022-12-29T15:12:31.275Z,116
2022-12-29T15:14:31.263Z,134
2022-12-29T15:16:31.468Z,133
2022-12-29T15:18:31.440Z,127
2022-12-29T15:20:31.525Z,111
2022-12-29T15:22:31.650Z,109
2022-12-29T15:24:31.716Z,111
2022-12-29T15:26:31.837Z,109
2022-12-29T15:28:31.909Z,110
2022-12-29T15:30:31.989Z,104
2022-12-29T15:32:32.113Z,100
2022-12-29T15:34:32.382Z,99
2022-12-29T15:36:32.304Z,124
2022-12-29T15:38:37.066Z,108
2022-12-29T15:40:32.465Z,142
2022-12-29T15:42:32.577Z,128
2022-12-29T15:44:32.653Z,182
2022-12-29T15:46:32.723Z,155
2022-12-29T15:48:32.846Z,153
2022-12-29T15:50:32.932Z,234
2022-12-29T15:52:33.014Z,237
2022-12-29T15:54:33.087Z,163
2022-12-29T15:56:33.176Z,136
2022-12-29T15:58:33.253Z,139
2022-12-29T16:00:33.384Z,142
2022-12-29T16:02:33.666Z,102
2022-12-29T16:04:43.326Z,95
2022-12-29T16:06:33.575Z,106
2022-12-29T16:08:33.691Z,112
2022-12-29T16:10:33.772Z,98
2022-12-29T16:12:33.877Z,95
2022-12-29T16:14:33.985Z,100
2022-12-29T16:16:34.100Z,104
2022-12-29T16:18:34.191Z,125
2022-12-29T16:20:34.220Z,131
2022-12-29T16:22:34.339Z,132
2022-12-29T16:24:34.399Z,133
2022-12-29T16:26:34.500Z,139
2022-12-29T16:28:34.627Z,137
2022-12-29T16:30:34.655Z,129
2022-12-29T16:32:34.748Z,135
2022-12-29T16:34:34.841Z,134
2022-12-29T16:36:34.899Z,137
2022-12-29T16:38:35.068Z,140
2022-12-29T16:41:05.163Z,136
2022-12-29T16:43:05.282Z,140
2022-12-29T16:45:05.380Z,139
2022-12-29T16:47:05.448Z,137
2022-12-29T16:49:05.568Z,142
2022-12-29T16:51:05.663Z,147
2022-12-29T16:53:05.764Z,135
2022-12-29T16:55:05.897Z,149
2022-12-29T16:57:05.986Z,189
2022-12-29T16:59:06.108Z,225
2022-12-29T17:01:06.320Z,251
2022-12-29T17:03:06.409Z,247
2022-12-29T17:05:06.442Z,231
2022-12-29T17:07:06.548Z,218
2022-12-29T17:09:06.653Z,227
2022-12-29T17:11:06.756Z,204
2022-12-29T17:13:06.867Z,168
2022-12-29T17:15:06.949Z,149
2022-12-29T17:17:07.080Z,137
2022-12-29T17:19:07.138Z,119
2022-12-29T17:21:07.314Z,132
2022-12-29T17:23:07.368Z,118
2022-12-29T17:25:07.501Z,113
2022-12-29T17:27:07.600Z,100
2022-12-29T17:29:07.675Z,101
2022-12-29T17:31:07.835Z,104
2022-12-29T17:33:07.890Z,111
2022-12-29T17:35:07.991Z,105
2022-12-29T17:37:08.103Z,107
2022-12-29T17:39:08.195Z,127
2022-12-29T17:41:08.286Z,120
2022-12-29T17:43:08.402Z,120
2022-12-29T17:45:08.504Z,114
2022-12-29T17:47:08.598Z,116
2022-12-29T17:49:08.720Z,115
2022-12-29T17:51:08.820Z,113
2022-12-29T17:53:08.921Z,119
2022-12-29T17:55:09.048Z,127
2022-12-29T17:57:09.133Z,125
2022-12-29T17:59:09.238Z,138
2022-12-29T18:01:09.431Z,159
2022-12-29T18:03:09.649Z,156
2022-12-29T18:05:09.541Z,158
2022-12-29T18:07:09.639Z,155
2022-12-29T18:09:09.749Z,152
2022-12-29T18:11:09.846Z,146
2022-12-29T18:13:09.922Z,148
2022-12-29T18:15:10.035Z,146
2022-12-29T18:17:10.149Z,145
2022-12-29T18:19:10.245Z,153
2022-12-29T18:21:10.345Z,148
2022-12-29T18:23:10.445Z,145
2022-12-29T18:25:10.564Z,151
2022-12-29T18:27:10.649Z,147
2022-12-29T18:29:10.778Z,144
2022-12-29T18:31:10.977Z,130
2022-12-29T18:33:13.259Z,121
2022-12-29T18:35:11.067Z,151
2022-12-29T18:37:11.146Z,143
2022-12-29T18:39:11.281Z,135
2022-12-29T18:41:11.392Z,136
2022-12-29T18:43:11.441Z,126
2022-12-29T18:45:11.560Z,132
2022-12-29T18:47:11.735Z,127
2022-12-29T18:49:11.756Z,120
2022-12-29T18:51:11.864Z,117
2022-12-29T18:53:11.957Z,111
2022-12-29T18:55:12.035Z,105
2022-12-29T18:57:12.153Z,94
2022-12-29T18:59:12.249Z,81
2022-12-29T19:01:12.409Z,84
2022-12-29T19:03:12.516Z,88
2022-12-29T19:05:12.555Z,79
2022-12-29T19:07:12.726Z,82
2022-12-29T19:09:12.737Z,82
2022-12-29T19:11:12.848Z,92
2022-12-29T19:13:12.947Z,78
2022-12-29T19:15:13.069Z,75
2022-12-29T19:17:13.170Z,81
2022-12-29T19:19:13.212Z,82
2022-12-29T19:21:13.324Z,86
2022-12-29T19:23:13.432Z,86
2022-12-29T19:25:13.501Z,87
2022-12-29T19:27:13.621Z,90
2022-12-29T19:29:13.764Z,89
2022-12-29T19:31:13.848Z,111
2022-12-29T19:33:13.878Z,115
2022-12-29T19:35:13.987Z,126
2022-12-29T19:37:14.168Z,131
2022-12-29T19:39:14.211Z,133
2022-12-29T19:41:14.309Z,160
2022-12-29T19:43:14.397Z,150
2022-12-29T19:45:14.500Z,152
2022-12-29T19:47:14.655Z,142
2022-12-29T19:49:14.692Z,131
2022-12-29T19:51:14.812Z,127
2022-12-29T19:53:14.937Z,126
2022-12-29T19:55:14.992Z,121
2022-12-29T19:57:15.045Z,119
2022-12-29T19:59:15.166Z,122
2022-12-29T20:01:15.333Z,129
2022-12-29T20:03:15.412Z,125
2022-12-29T20:05:15.495Z,124
2022-12-29T20:07:17.716Z,119
2022-12-29T20:09:15.636Z,118
2022-12-29T20:11:15.740Z,118
2022-12-29T20:13:15.833Z,111
2022-12-29T20:15:15.937Z,111
2022-12-29T20:17:22.796Z,105
2022-12-29T20:19:16.187Z,109
2022-12-29T20:21:16.181Z,107
2022-12-29T20:23:16.286Z,111
2022-12-29T20:25:44.251Z,105
2022-12-29T20:27:16.422Z,112
2022-12-29T20:29:16.539Z,126
2022-12-29T20:31:16.700Z,120
2022-12-29T20:33:16.695Z,122
2022-12-29T20:37:16.875Z,127
2022-12-29T20:39:16.956Z,128
2022-12-29T20:41:17.045Z,121
2022-12-29T20:43:17.157Z,158
2022-12-29T20:47:17.324Z,152
2022-12-29T20:49:17.503Z,154
2022-12-29T20:51:17.500Z,169
2022-12-29T20:53:17.606Z,208
2022-12-29T20:55:17.677Z,271
2022-12-29T20:57:17.804Z,261
2022-12-29T20:59:27.438Z,270
2022-12-29T21:01:18.161Z,267
2022-12-29T21:03:18.116Z,231
2022-12-29T21:05:25.652Z,208
2022-12-29T21:07:20.110Z,171
2022-12-29T21:09:18.248Z,188
2022-12-29T21:11:18.356Z,181
2022-12-29T21:13:18.425Z,184
2022-12-29T21:15:18.524Z,181
2022-12-29T21:17:18.585Z,175
2022-12-29T21:19:18.704Z,179
2022-12-29T21:21:48.791Z,182
2022-12-29T21:23:48.918Z,187
2022-12-29T21:25:49.014Z,187
2022-12-29T21:27:49.177Z,189
2022-12-29T21:29:49.238Z,196
2022-12-29T21:31:49.382Z,218
2022-12-29T21:33:49.482Z,224
2022-12-29T21:35:49.587Z,255
2022-12-29T21:37:49.707Z,258
2022-12-29T21:39:49.836Z,258
2022-12-29T21:41:49.943Z,330
2022-12-29T21:43:50.049Z,299
2022-12-29T21:45:50.269Z,302
2022-12-29T21:47:50.325Z,310
2022-12-29T21:49:50.409Z,321
2022-12-29T21:51:50.531Z,305
2022-12-29T21:53:50.639Z,287
2022-12-29T21:55:50.738Z,239
2022-12-29T21:57:50.896Z,195
2022-12-29T21:59:50.963Z,176
2022-12-29T22:01:51.243Z,165
2022-12-29T22:03:51.314Z,160
2022-12-29T22:05:51.321Z,151
2022-12-29T22:07:51.423Z,138
2022-12-29T22:09:51.567Z,131
2022-12-29T22:11:51.667Z,127
2022-12-29T22:13:51.789Z,129
2022-12-29T22:15:51.943Z,131
2022-12-29T22:17:52.003Z,120
2022-12-29T22:19:52.097Z,121
2022-12-29T22:21:52.230Z,128
2022-12-29T22:23:52.328Z,142
2022-12-29T22:25:52.438Z,137
2022-12-29T22:27:58.533Z,130
2022-12-29T22:29:52.612Z,126
2022-12-29T22:31:52.746Z,128
2022-12-29T22:33:52.870Z,116
2022-12-29T22:35:52.968Z,122
2022-12-29T22:37:53.089Z,121
2022-12-29T22:39:53.176Z,115
2022-12-29T22:41:53.299Z,119
2022-12-29T22:43:53.407Z,115
2022-12-29T22:45:53.495Z,104
2022-12-29T22:47:53.617Z,102
2022-12-29T22:49:53.719Z,97
2022-12-29T22:51:53.854Z,94
2022-12-29T22:53:53.944Z,96
2022-12-29T22:55:54.061Z,98
2022-12-29T22:57:54.146Z,88
2022-12-29T22:59:54.255Z,88
2022-12-29T23:01:54.426Z,86
2022-12-29T23:04:05.957Z,85
2022-12-29T23:05:54.553Z,83
2022-12-29T23:07:54.661Z,89
2022-12-29T23:09:54.808Z,84
2022-12-29T23:11:54.882Z,82
2022-12-29T23:13:55.006Z,81
2022-12-29T23:15:55.163Z,80
2022-12-29T23:17:55.197Z,76
2022-12-29T23:19:55.334Z,80
2022-12-29T23:21:55.494Z,80
2022-12-29T23:23:55.550Z,74
2022-12-29T23:25:55.664Z,78
2022-12-29T23:27:55.768Z,73
2022-12-29T23:29:55.876Z,73
2022-12-29T23:31:55.974Z,75
2022-12-29T23:33:56.070Z,82
2022-12-29T23:35:56.163Z,97
2022-12-29T23:37:56.256Z,94
2022-12-29T23:39:56.377Z,118
2022-12-29T23:41:56.499Z,76
2022-12-29T23:43:56.593Z,61
2022-12-29T23:45:56.716Z,60
2022-12-29T23:49:56.920Z,73
2022-12-29T23:51:57.050Z,120
2022-12-29T23:53:57.142Z,114
2022-12-29T23:55:57.214Z,127
2022-12-29T23:57:57.349Z,129
2022-12-29T23:59:57.434Z,145
